sensor_id;sensor_type;location;lat;lon;timestamp;pressure;altitude;pressure_sealevel;temperature;humidity
57827;BME280;43656;57.746;11.780;2022-10-26T00:01:27;100909.44;;;12.50;100.00
57827;BME280;43656;57.746;11.780;2022-10-26T00:03:54;100931.25;;;12.62;100.00
57827;BME280;43656;57.746;11.780;2022-10-26T00:06:22;100928.97;;;12.59;100.00
57827;BME280;43656;57.746;11.780;2022-10-26T00:08:51;100926.06;;;12.47;100.00
57827;BME280;43656;57.746;11.780;2022-10-26T00:11:18;100932.28;;;12.54;100.00
57827;BME280;43656;57.746;11.780;2022-10-26T00:13:45;100932.28;;;12.54;100.00
57827;BME280;43656;57.746;11.780;2022-10-26T00:16:13;100932.69;;;12.51;100.00
57827;BME280;43656;57.746;11.780;2022-10-26T00:18:48;100932.50;;;12.46;100.00
57827;BME280;43656;57.746;11.780;2022-10-26T00:21:15;100941.03;;;12.43;100.00
57827;BME280;43656;57.746;11.780;2022-10-26T00:23:41;100940.59;;;12.46;100.00
57827;BME280;43656;57.746;11.780;2022-10-26T00:26:07;100923.59;;;12.39;100.00
57827;BME280;43656;57.746;11.780;2022-10-26T00:28:32;100942.66;;;12.44;100.00
57827;BME280;43656;57.746;11.780;2022-10-26T00:31:07;100937.50;;;12.42;100.00
57827;BME280;43656;57.746;11.780;2022-10-26T00:33:33;100942.06;;;12.42;100.00
57827;BME280;43656;57.746;11.780;2022-10-26T00:35:58;100942.47;;;12.39;100.00
57827;BME280;43656;57.746;11.780;2022-10-26T00:38:24;100947.66;;;12.40;100.00
57827;BME280;43656;57.746;11.780;2022-10-26T00:40:49;100942.88;;;12.42;100.00
57827;BME280;43656;57.746;11.780;2022-10-26T00:45:48;100951.81;;;12.43;100.00
57827;BME280;43656;57.746;11.780;2022-10-26T00:48:24;100936.03;;;12.27;100.00
57827;BME280;43656;57.746;11.780;2022-10-26T00:50:51;100959.91;;;12.36;100.00
57827;BME280;43656;57.746;11.780;2022-10-26T00:53:18;100960.09;;;12.35;100.00
57827;BME280;43656;57.746;11.780;2022-10-26T00:55:46;100963.84;;;12.34;100.00
57827;BME280;43656;57.746;11.780;2022-10-26T00:58:13;100966.53;;;12.34;100.00
57827;BME280;43656;57.746;11.780;2022-10-26T01:00:40;100950.75;;;12.37;100.00
57827;BME280;43656;57.746;11.780;2022-10-26T01:03:07;100967.78;;;12.38;100.00
57827;BME280;43656;57.746;11.780;2022-10-26T01:05:35;100938.31;;;12.23;100.00
57827;BME280;43656;57.746;11.780;2022-10-26T01:08:21;100958.66;;;12.39;100.00
57827;BME280;43656;57.746;11.780;2022-10-26T01:10:50;100960.09;;;12.28;100.00
57827;BME280;43656;57.746;11.780;2022-10-26T01:13:17;100965.94;;;12.32;100.00
57827;BME280;43656;57.746;11.780;2022-10-26T01:19:01;100973.00;;;12.39;100.00
57827;BME280;43656;57.746;11.780;2022-10-26T01:25:23;100977.75;;;12.44;100.00
57827;BME280;43656;57.746;11.780;2022-10-26T01:27:52;100975.28;;;12.42;100.00
57827;BME280;43656;57.746;11.780;2022-10-26T01:38:24;100982.53;;;12.35;100.00
57827;BME280;43656;57.746;11.780;2022-10-26T01:40:57;100976.09;;;12.30;100.00
57827;BME280;43656;57.746;11.780;2022-10-26T01:43:25;100984.19;;;12.30;100.00
57827;BME280;43656;57.746;11.780;2022-10-26T01:45:53;100978.38;;;12.19;100.00
57827;BME280;43656;57.746;11.780;2022-10-26T01:48:21;100967.97;;;12.16;100.00
57827;BME280;43656;57.746;11.780;2022-10-26T01:50:51;100963.41;;;12.10;100.00
57827;BME280;43656;57.746;11.780;2022-10-26T01:53:18;100971.50;;;12.10;100.00
57827;BME280;43656;57.746;11.780;2022-10-26T01:55:52;100966.09;;;12.10;100.00
57827;BME280;43656;57.746;11.780;2022-10-26T02:11:56;100977.13;;;12.29;100.00
57827;BME280;43656;57.746;11.780;2022-10-26T02:14:47;100987.94;;;12.49;100.00
57827;BME280;43656;57.746;11.780;2022-10-26T02:17:21;100989.38;;;12.44;100.00
57827;BME280;43656;57.746;11.780;2022-10-26T02:20:03;100971.94;;;12.34;100.00
57827;BME280;43656;57.746;11.780;2022-10-26T02:22:35;100994.16;;;12.49;100.00
57827;BME280;43656;57.746;11.780;2022-10-26T02:25:08;100990.22;;;12.52;100.00
57827;BME280;43656;57.746;11.780;2022-10-26T02:27:41;100988.78;;;12.49;100.00
57827;BME280;43656;57.746;11.780;2022-10-26T02:30:08;100977.34;;;12.47;100.00
57827;BME280;43656;57.746;11.780;2022-10-26T02:32:37;100991.66;;;12.61;100.00
57827;BME280;43656;57.746;11.780;2022-10-26T02:35:05;100996.25;;;12.60;100.00
57827;BME280;43656;57.746;11.780;2022-10-26T02:37:32;100992.06;;;12.64;100.00
57827;BME280;43656;57.746;11.780;2022-10-26T02:40:02;100993.34;;;12.82;100.00
57827;BME280;43656;57.746;11.780;2022-10-26T02:42:30;100993.09;;;12.90;100.00
57827;BME280;43656;57.746;11.780;2022-10-26T02:45:04;100991.63;;;12.94;100.00
57827;BME280;43656;57.746;11.780;2022-10-26T02:47:31;101004.72;;;12.97;100.00
57827;BME280;43656;57.746;11.780;2022-10-26T02:50:01;100987.28;;;12.86;100.00
57827;BME280;43656;57.746;11.780;2022-10-26T02:55:07;101007.63;;;13.02;100.00
57827;BME280;43656;57.746;11.780;2022-10-26T03:00:10;100998.50;;;12.97;100.00
57827;BME280;43656;57.746;11.780;2022-10-26T03:02:36;100992.28;;;12.96;100.00
57827;BME280;43656;57.746;11.780;2022-10-26T03:05:22;100994.34;;;12.94;100.00
57827;BME280;43656;57.746;11.780;2022-10-26T03:07:48;100997.47;;;12.91;100.00
57827;BME280;43656;57.746;11.780;2022-10-26T03:10:14;100998.72;;;12.88;100.00
57827;BME280;43656;57.746;11.780;2022-10-26T03:12:39;100996.84;;;12.89;100.00
57827;BME280;43656;57.746;11.780;2022-10-26T03:15:05;100999.75;;;12.81;100.00
57827;BME280;43656;57.746;11.780;2022-10-26T03:17:30;101005.38;;;12.79;100.00
57827;BME280;43656;57.746;11.780;2022-10-26T03:19:56;101002.47;;;12.74;100.00
57827;BME280;43656;57.746;11.780;2022-10-26T03:22:22;101003.72;;;12.72;100.00
57827;BME280;43656;57.746;11.780;2022-10-26T03:24:47;100988.78;;;12.62;100.00
57827;BME280;43656;57.746;11.780;2022-10-26T03:27:13;100991.66;;;12.54;100.00
57827;BME280;43656;57.746;11.780;2022-10-26T03:29:39;101003.28;;;12.68;100.00
57827;BME280;43656;57.746;11.780;2022-10-26T03:32:04;100994.59;;;12.53;100.00
57827;BME280;43656;57.746;11.780;2022-10-26T03:34:30;101026.56;;;12.69;100.00
57827;BME280;43656;57.746;11.780;2022-10-26T03:36:55;101017.41;;;12.70;100.00
57827;BME280;43656;57.746;11.780;2022-10-26T03:39:21;101018.88;;;12.73;100.00
57827;BME280;43656;57.746;11.780;2022-10-26T03:41:46;101011.19;;;12.63;100.00
57827;BME280;43656;57.746;11.780;2022-10-26T03:44:12;101032.56;;;12.71;100.00
57827;BME280;43656;57.746;11.780;2022-10-26T03:46:38;101026.34;;;12.70;100.00
57827;BME280;43656;57.746;11.780;2022-10-26T03:49:03;101019.06;;;12.64;100.00
57827;BME280;43656;57.746;11.780;2022-10-26T03:51:28;101030.72;;;12.72;100.00
57827;BME280;43656;57.746;11.780;2022-10-26T03:53:54;101027.59;;;12.68;100.00
57827;BME280;43656;57.746;11.780;2022-10-26T03:56:19;101033.44;;;12.72;100.00
57827;BME280;43656;57.746;11.780;2022-10-26T03:58:44;101034.03;;;12.74;100.00
57827;BME280;43656;57.746;11.780;2022-10-26T04:01:10;101041.09;;;12.75;100.00
57827;BME280;43656;57.746;11.780;2022-10-26T04:03:35;101044.22;;;12.78;100.00
57827;BME280;43656;57.746;11.780;2022-10-26T04:06:01;101050.03;;;12.82;100.00
57827;BME280;43656;57.746;11.780;2022-10-26T04:08:27;101046.94;;;12.85;100.00
57827;BME280;43656;57.746;11.780;2022-10-26T04:10:52;101053.56;;;12.89;100.00
57827;BME280;43656;57.746;11.780;2022-10-26T04:13:21;101044.00;;;12.86;100.00
57827;BME280;43656;57.746;11.780;2022-10-26T04:15:46;101007.03;;;12.67;100.00
57827;BME280;43656;57.746;11.780;2022-10-26T04:18:11;101040.25;;;12.87;100.00
57827;BME280;43656;57.746;11.780;2022-10-26T04:20:38;101007.84;;;12.67;100.00
57827;BME280;43656;57.746;11.780;2022-10-26T04:23:08;101049.81;;;12.90;100.00
57827;BME280;43656;57.746;11.780;2022-10-26T04:25:34;101053.75;;;12.87;100.00
57827;BME280;43656;57.746;11.780;2022-10-26T04:28:00;101053.97;;;12.86;100.00
57827;BME280;43656;57.746;11.780;2022-10-26T04:30:26;101060.63;;;12.90;100.00
57827;BME280;43656;57.746;11.780;2022-10-26T04:32:51;101050.03;;;12.82;100.00
57827;BME280;43656;57.746;11.780;2022-10-26T04:35:17;101058.56;;;12.85;100.00
57827;BME280;43656;57.746;11.780;2022-10-26T04:37:42;101056.06;;;12.84;100.00
57827;BME280;43656;57.746;11.780;2022-10-26T04:40:08;101062.28;;;12.84;100.00
57827;BME280;43656;57.746;11.780;2022-10-26T04:42:44;101055.63;;;12.87;100.00
57827;BME280;43656;57.746;11.780;2022-10-26T04:45:11;101057.50;;;12.93;100.00
57827;BME280;43656;57.746;11.780;2022-10-26T04:47:36;101060.22;;;12.93;100.00
57827;BME280;43656;57.746;11.780;2022-10-26T04:50:02;101061.03;;;12.93;100.00
57827;BME280;43656;57.746;11.780;2022-10-26T04:52:28;101039.44;;;12.80;100.00
57827;BME280;43656;57.746;11.780;2022-10-26T04:54:53;101062.69;;;12.94;100.00
57827;BME280;43656;57.746;11.780;2022-10-26T04:57:18;101069.13;;;12.93;100.00
57827;BME280;43656;57.746;11.780;2022-10-26T04:59:44;101066.84;;;12.97;100.00
57827;BME280;43656;57.746;11.780;2022-10-26T05:02:09;101063.31;;;12.97;100.00
57827;BME280;43656;57.746;11.780;2022-10-26T05:04:34;101060.44;;;12.98;100.00
57827;BME280;43656;57.746;11.780;2022-10-26T05:07:00;101049.63;;;12.91;100.00
57827;BME280;43656;57.746;11.780;2022-10-26T05:09:25;101061.25;;;12.99;100.00
57827;BME280;43656;57.746;11.780;2022-10-26T05:11:51;101066.44;;;13.00;100.00
57827;BME280;43656;57.746;11.780;2022-10-26T05:14:16;101060.22;;;13.00;100.00
57827;BME280;43656;57.746;11.780;2022-10-26T05:16:41;101042.97;;;12.94;100.00
57827;BME280;43656;57.746;11.780;2022-10-26T05:19:09;101058.97;;;13.02;100.00
57827;BME280;43656;57.746;11.780;2022-10-26T05:21:34;101069.78;;;13.02;100.00
57827;BME280;43656;57.746;11.780;2022-10-26T05:23:59;101065.19;;;13.03;100.00
57827;BME280;43656;57.746;11.780;2022-10-26T05:26:25;101063.31;;;13.03;100.00
57827;BME280;43656;57.746;11.780;2022-10-26T05:28:51;101070.59;;;13.03;100.00
57827;BME280;43656;57.746;11.780;2022-10-26T05:31:17;101068.31;;;13.06;100.00
57827;BME280;43656;57.746;11.780;2022-10-26T05:33:42;101070.81;;;13.08;100.00
57827;BME280;43656;57.746;11.780;2022-10-26T05:36:08;101049.00;;;12.96;100.00
57827;BME280;43656;57.746;11.780;2022-10-26T05:38:33;101078.47;;;13.04;100.00
57827;BME280;43656;57.746;11.780;2022-10-26T05:40:59;101083.47;;;13.07;100.00
57827;BME280;43656;57.746;11.780;2022-10-26T05:43:25;101090.56;;;13.08;100.00
57827;BME280;43656;57.746;11.780;2022-10-26T05:45:52;101089.72;;;13.08;100.00
57827;BME280;43656;57.746;11.780;2022-10-26T05:48:18;101101.38;;;13.08;100.00
57827;BME280;43656;57.746;11.780;2022-10-26T05:50:44;101096.97;;;13.07;100.00
57827;BME280;43656;57.746;11.780;2022-10-26T05:53:09;101106.53;;;13.03;100.00
57827;BME280;43656;57.746;11.780;2022-10-26T05:55:35;101108.00;;;12.99;100.00
57827;BME280;43656;57.746;11.780;2022-10-26T05:58:01;101109.25;;;13.03;100.00
57827;BME280;43656;57.746;11.780;2022-10-26T06:00:28;101108.19;;;13.04;100.00
57827;BME280;43656;57.746;11.780;2022-10-26T06:05:54;101111.13;;;13.09;100.00
57827;BME280;43656;57.746;11.780;2022-10-26T06:08:22;101108.41;;;13.09;100.00
57827;BME280;43656;57.746;11.780;2022-10-26T06:10:51;101093.66;;;12.99;100.00
57827;BME280;43656;57.746;11.780;2022-10-26T06:13:19;101115.47;;;13.10;100.00
57827;BME280;43656;57.746;11.780;2022-10-26T06:21:26;101126.91;;;13.12;100.00
57827;BME280;43656;57.746;11.780;2022-10-26T06:32:08;101142.06;;;13.07;100.00
57827;BME280;43656;57.746;11.780;2022-10-26T06:34:38;101132.50;;;13.04;100.00
57827;BME280;43656;57.746;11.780;2022-10-26T06:37:09;101135.44;;;12.96;100.00
57827;BME280;43656;57.746;11.780;2022-10-26T06:39:35;101142.91;;;12.94;100.00
57827;BME280;43656;57.746;11.780;2022-10-26T06:42:03;101142.06;;;12.93;100.00
57827;BME280;43656;57.746;11.780;2022-10-26T06:44:28;101134.38;;;12.84;100.00
57827;BME280;43656;57.746;11.780;2022-10-26T06:47:09;101156.63;;;12.92;100.00
57827;BME280;43656;57.746;11.780;2022-10-26T06:50:51;101154.97;;;12.91;100.00
57827;BME280;43656;57.746;11.780;2022-10-26T06:52:54;101130.41;;;12.80;100.00
57827;BME280;43656;57.746;11.780;2022-10-26T06:55:22;101125.66;;;12.75;100.00
57827;BME280;43656;57.746;11.780;2022-10-26T06:57:48;101167.00;;;12.96;100.00
57827;BME280;43656;57.746;11.780;2022-10-26T07:00:19;101155.78;;;12.92;100.00
57827;BME280;43656;57.746;11.780;2022-10-26T07:02:44;101168.03;;;12.94;100.00
57827;BME280;43656;57.746;11.780;2022-10-26T07:05:10;101168.66;;;12.97;100.00
57827;BME280;43656;57.746;11.780;2022-10-26T07:07:41;101153.28;;;12.90;100.00
57827;BME280;43656;57.746;11.780;2022-10-26T07:10:12;101166.59;;;12.99;100.00
57827;BME280;43656;57.746;11.780;2022-10-26T07:12:38;101171.19;;;12.98;100.00
57827;BME280;43656;57.746;11.780;2022-10-26T07:15:04;101189.03;;;12.99;100.00
57827;BME280;43656;57.746;11.780;2022-10-26T07:17:30;101190.69;;;13.00;100.00
57827;BME280;43656;57.746;11.780;2022-10-26T07:19:55;101194.22;;;13.01;100.00
57827;BME280;43656;57.746;11.780;2022-10-26T07:22:21;101192.16;;;12.96;100.00
57827;BME280;43656;57.746;11.780;2022-10-26T07:24:47;101203.59;;;12.98;100.00
57827;BME280;43656;57.746;11.780;2022-10-26T07:27:15;101197.56;;;12.96;100.00
57827;BME280;43656;57.746;11.780;2022-10-26T07:29:40;101206.91;;;13.00;100.00
57827;BME280;43656;57.746;11.780;2022-10-26T07:32:06;101200.69;;;13.00;100.00
57827;BME280;43656;57.746;11.780;2022-10-26T07:34:32;101203.38;;;13.00;100.00
57827;BME280;43656;57.746;11.780;2022-10-26T07:37:00;101201.31;;;13.02;100.00
57827;BME280;43656;57.746;11.780;2022-10-26T07:39:26;101202.75;;;13.04;100.00
57827;BME280;43656;57.746;11.780;2022-10-26T07:41:52;101198.19;;;13.05;100.00
57827;BME280;43656;57.746;11.780;2022-10-26T07:44:18;101198.19;;;13.05;100.00
57827;BME280;43656;57.746;11.780;2022-10-26T07:46:44;101207.13;;;13.05;100.00
57827;BME280;43656;57.746;11.780;2022-10-26T07:49:09;101213.16;;;13.07;100.00
57827;BME280;43656;57.746;11.780;2022-10-26T07:51:35;101226.06;;;13.12;100.00
57827;BME280;43656;57.746;11.780;2022-10-26T07:54:00;101223.53;;;13.10;100.00
57827;BME280;43656;57.746;11.780;2022-10-26T07:56:26;101197.34;;;12.98;100.00
57827;BME280;43656;57.746;11.780;2022-10-26T07:58:52;101236.88;;;13.12;100.00
57827;BME280;43656;57.746;11.780;2022-10-26T08:01:18;101229.38;;;13.14;100.00
57827;BME280;43656;57.746;11.780;2022-10-26T08:03:43;101234.78;;;13.14;100.00
57827;BME280;43656;57.746;11.780;2022-10-26T08:06:09;101233.75;;;13.15;100.00
57827;BME280;43656;57.746;11.780;2022-10-26T08:08:35;101233.94;;;13.13;100.00
57827;BME280;43656;57.746;11.780;2022-10-26T08:11:00;101242.69;;;13.15;100.00
57827;BME280;43656;57.746;11.780;2022-10-26T08:13:26;101238.53;;;13.20;100.00
57827;BME280;43656;57.746;11.780;2022-10-26T08:15:59;101252.03;;;13.20;100.00
57827;BME280;43656;57.746;11.780;2022-10-26T08:18:25;101258.09;;;13.22;100.00
57827;BME280;43656;57.746;11.780;2022-10-26T08:20:51;101253.28;;;13.24;100.00
57827;BME280;43656;57.746;11.780;2022-10-26T08:23:17;101252.91;;;13.27;100.00
57827;BME280;43656;57.746;11.780;2022-10-26T08:25:42;101254.78;;;13.26;100.00
57827;BME280;43656;57.746;11.780;2022-10-26T08:28:10;101254.59;;;13.28;100.00
57827;BME280;43656;57.746;11.780;2022-10-26T08:30:35;101248.56;;;13.26;100.00
57827;BME280;43656;57.746;11.780;2022-10-26T08:33:05;101264.34;;;13.29;100.00
57827;BME280;43656;57.746;11.780;2022-10-26T08:35:31;101264.34;;;13.29;100.00
57827;BME280;43656;57.746;11.780;2022-10-26T08:37:57;101233.50;;;13.03;100.00
57827;BME280;43656;57.746;11.780;2022-10-26T08:40:26;101274.13;;;13.30;100.00
57827;BME280;43656;57.746;11.780;2022-10-26T08:43:04;101271.81;;;13.27;100.00
57827;BME280;43656;57.746;11.780;2022-10-26T08:45:39;101271.38;;;13.23;100.00
57827;BME280;43656;57.746;11.780;2022-10-26T08:48:13;101283.47;;;13.27;100.00
57827;BME280;43656;57.746;11.780;2022-10-26T08:59:03;101276.66;;;13.45;100.00
57827;BME280;43656;57.746;11.780;2022-10-26T09:01:31;101280.19;;;13.45;100.00
57827;BME280;43656;57.746;11.780;2022-10-26T09:03:59;101269.97;;;13.47;100.00
57827;BME280;43656;57.746;11.780;2022-10-26T09:06:47;101283.91;;;13.57;100.00
57827;BME280;43656;57.746;11.780;2022-10-26T09:26:14;101287.91;;;13.68;100.00
57827;BME280;43656;57.746;11.780;2022-10-26T09:28:45;101257.31;;;13.54;100.00
57827;BME280;43656;57.746;11.780;2022-10-26T09:31:15;101288.09;;;13.73;100.00
57827;BME280;43656;57.746;11.780;2022-10-26T09:33:41;101292.66;;;13.79;100.00
57827;BME280;43656;57.746;11.780;2022-10-26T09:36:11;101294.31;;;13.87;100.00
57827;BME280;43656;57.746;11.780;2022-10-26T09:38:55;101291.84;;;13.92;100.00
57827;BME280;43656;57.746;11.780;2022-10-26T09:41:39;101288.91;;;13.94;100.00
57827;BME280;43656;57.746;11.780;2022-10-26T09:49:46;101310.13;;;13.90;100.00
57827;BME280;43656;57.746;11.780;2022-10-26T09:52:14;101288.72;;;13.82;100.00
57827;BME280;43656;57.746;11.780;2022-10-26T09:54:40;101308.47;;;13.96;100.00
57827;BME280;43656;57.746;11.780;2022-10-26T09:57:06;101319.28;;;14.02;100.00
57827;BME280;43656;57.746;11.780;2022-10-26T09:59:37;101316.81;;;14.01;100.00
57827;BME280;43656;57.746;11.780;2022-10-26T10:02:31;101328.06;;;13.98;100.00
57827;BME280;43656;57.746;11.780;2022-10-26T10:04:56;101318.88;;;13.92;100.00
57827;BME280;43656;57.746;11.780;2022-10-26T10:07:22;101296.00;;;13.75;100.00
57827;BME280;43656;57.746;11.780;2022-10-26T10:10:13;101330.13;;;13.89;100.00
57827;BME280;43656;57.746;11.780;2022-10-26T10:12:39;101318.66;;;13.80;100.00
57827;BME280;43656;57.746;11.780;2022-10-26T10:15:19;101334.06;;;13.86;100.00
57827;BME280;43656;57.746;11.780;2022-10-26T10:17:47;101336.38;;;13.90;100.00
57827;BME280;43656;57.746;11.780;2022-10-26T10:20:18;101338.47;;;13.94;100.00
57827;BME280;43656;57.746;11.780;2022-10-26T10:22:54;101326.19;;;13.85;100.00
57827;BME280;43656;57.746;11.780;2022-10-26T10:25:46;101347.41;;;13.95;100.00
57827;BME280;43656;57.746;11.780;2022-10-26T10:28:24;101354.06;;;13.92;100.00
57827;BME280;43656;57.746;11.780;2022-10-26T10:30:57;101347.19;;;13.90;100.00
57827;BME280;43656;57.746;11.780;2022-10-26T10:33:36;101353.84;;;13.87;100.00
57827;BME280;43656;57.746;11.780;2022-10-26T10:36:05;101355.09;;;13.84;100.00
57827;BME280;43656;57.746;11.780;2022-10-26T10:38:39;101344.88;;;13.80;100.00
57827;BME280;43656;57.746;11.780;2022-10-26T10:41:14;101330.94;;;13.70;100.00
57827;BME280;43656;57.746;11.780;2022-10-26T10:46:23;101346.78;;;13.93;100.00
57827;BME280;43656;57.746;11.780;2022-10-26T10:48:59;101329.91;;;13.84;100.00
57827;BME280;43656;57.746;11.780;2022-10-26T10:51:26;101350.94;;;13.95;100.00
57827;BME280;43656;57.746;11.780;2022-10-26T10:53:55;101360.09;;;14.01;100.00
57827;BME280;43656;57.746;11.780;2022-10-26T10:56:34;101363.22;;;14.04;100.00
57827;BME280;43656;57.746;11.780;2022-10-26T10:59:43;101362.41;;;14.04;100.00
57827;BME280;43656;57.746;11.780;2022-10-26T11:07:05;101365.94;;;14.04;100.00
57827;BME280;43656;57.746;11.780;2022-10-26T11:09:35;101362.59;;;14.02;100.00
57827;BME280;43656;57.746;11.780;2022-10-26T11:12:08;101365.28;;;14.02;100.00
57827;BME280;43656;57.746;11.780;2022-10-26T11:14:40;101363.00;;;14.06;100.00
57827;BME280;43656;57.746;11.780;2022-10-26T11:17:12;101368.00;;;14.09;100.00
57827;BME280;43656;57.746;11.780;2022-10-26T11:19:54;101363.63;;;14.15;100.00
57827;BME280;43656;57.746;11.780;2022-10-26T11:22:30;101352.81;;;14.08;100.00
57827;BME280;43656;57.746;11.780;2022-10-26T11:25:05;101383.00;;;14.25;100.00
57827;BME280;43656;57.746;11.780;2022-10-26T11:28:00;101376.94;;;14.36;100.00
57827;BME280;43656;57.746;11.780;2022-10-26T11:30:29;101368.41;;;14.26;100.00
57827;BME280;43656;57.746;11.780;2022-10-26T11:33:30;101381.09;;;14.39;100.00
57827;BME280;43656;57.746;11.780;2022-10-26T11:36:02;101380.69;;;14.42;100.00
57827;BME280;43656;57.746;11.780;2022-10-26T11:38:37;101384.84;;;14.44;100.00
57827;BME280;43656;57.746;11.780;2022-10-26T11:41:11;101390.88;;;14.46;100.00
57827;BME280;43656;57.746;11.780;2022-10-26T11:47:02;101391.69;;;14.47;100.00
57827;BME280;43656;57.746;11.780;2022-10-26T11:49:43;101389.00;;;14.47;100.00
57827;BME280;43656;57.746;11.780;2022-10-26T11:54:53;101398.56;;;14.49;100.00
57827;BME280;43656;57.746;11.780;2022-10-26T11:57:21;101371.53;;;14.29;100.00
57827;BME280;43656;57.746;11.780;2022-10-26T12:02:39;101387.75;;;14.49;100.00
57827;BME280;43656;57.746;11.780;2022-10-26T12:07:39;101406.31;;;14.52;100.00
57827;BME280;43656;57.746;11.780;2022-10-26T12:10:13;101401.72;;;14.60;100.00
57827;BME280;43656;57.746;11.780;2022-10-26T12:13:16;101410.47;;;14.68;100.00
57827;BME280;43656;57.746;11.780;2022-10-26T12:16:06;101400.25;;;14.70;100.00
57827;BME280;43656;57.746;11.780;2022-10-26T12:18:49;101414.63;;;14.71;100.00
57827;BME280;43656;57.746;11.780;2022-10-26T12:21:17;101410.88;;;14.72;100.00
57827;BME280;43656;57.746;11.780;2022-10-26T12:23:54;101416.06;;;14.73;100.00
57827;BME280;43656;57.746;11.780;2022-10-26T12:29:12;101409.81;;;14.73;100.00
57827;BME280;43656;57.746;11.780;2022-10-26T12:34:14;101411.47;;;14.87;100.00
57827;BME280;43656;57.746;11.780;2022-10-26T12:37:28;101407.28;;;14.91;100.00
57827;BME280;43656;57.746;11.780;2022-10-26T12:42:55;101396.63;;;14.90;100.00
57827;BME280;43656;57.746;11.780;2022-10-26T12:45:22;101403.31;;;14.94;100.00
57827;BME280;43656;57.746;11.780;2022-10-26T13:03:32;101412.88;;;14.96;100.00
57827;BME280;43656;57.746;11.780;2022-10-26T13:08:44;101418.28;;;14.96;100.00
57827;BME280;43656;57.746;11.780;2022-10-26T13:11:34;101421.84;;;15.03;100.00
57827;BME280;43656;57.746;11.780;2022-10-26T13:14:07;101417.69;;;15.01;100.00
57827;BME280;43656;57.746;11.780;2022-10-26T13:16:33;101417.44;;;15.02;100.00
57827;BME280;43656;57.746;11.780;2022-10-26T13:18:59;101389.56;;;14.89;100.00
57827;BME280;43656;57.746;11.780;2022-10-26T13:21:45;101412.66;;;15.04;100.00
57827;BME280;43656;57.746;11.780;2022-10-26T13:24:13;101420.78;;;15.04;100.00
57827;BME280;43656;57.746;11.780;2022-10-26T13:29:30;101417.06;;;14.92;100.00
57827;BME280;43656;57.746;11.780;2022-10-26T13:31:56;101421.03;;;14.83;100.00
57827;BME280;43656;57.746;11.780;2022-10-26T13:34:25;101413.78;;;14.77;100.00
57827;BME280;43656;57.746;11.780;2022-10-26T13:39:42;101416.28;;;14.72;100.00
57827;BME280;43656;57.746;11.780;2022-10-26T13:42:28;101420.06;;;14.71;100.00
57827;BME280;43656;57.746;11.780;2022-10-26T13:45:00;101420.88;;;14.65;100.00
57827;BME280;43656;57.746;11.780;2022-10-26T13:50:40;101421.72;;;14.59;100.00
57827;BME280;43656;57.746;11.780;2022-10-26T13:55:57;101389.00;;;14.27;100.00
57827;BME280;43656;57.746;11.780;2022-10-26T13:58:33;101411.69;;;14.46;100.00
57827;BME280;43656;57.746;11.780;2022-10-26T14:01:14;101398.81;;;14.34;100.00
57827;BME280;43656;57.746;11.780;2022-10-26T14:03:41;101425.66;;;14.43;100.00
57827;BME280;43656;57.746;11.780;2022-10-26T14:08:52;101421.28;;;14.42;100.00
57827;BME280;43656;57.746;11.780;2022-10-26T14:11:21;101425.47;;;14.44;100.00
57827;BME280;43656;57.746;11.780;2022-10-26T14:13:49;101427.13;;;14.45;100.00
57827;BME280;43656;57.746;11.780;2022-10-26T14:16:16;101399.84;;;14.27;100.00
57827;BME280;43656;57.746;11.780;2022-10-26T14:18:45;101433.59;;;14.44;100.00
57827;BME280;43656;57.746;11.780;2022-10-26T14:21:18;101436.91;;;14.40;100.00
57827;BME280;43656;57.746;11.780;2022-10-26T14:23:45;101441.31;;;14.34;100.00
57827;BME280;43656;57.746;11.780;2022-10-26T14:26:24;101433.78;;;14.36;100.00
57827;BME280;43656;57.746;11.780;2022-10-26T14:28:55;101438.38;;;14.36;100.00
57827;BME280;43656;57.746;11.780;2022-10-26T14:31:29;101447.53;;;14.34;100.00
57827;BME280;43656;57.746;11.780;2022-10-26T14:33:56;101444.63;;;14.36;100.00
57827;BME280;43656;57.746;11.780;2022-10-26T14:36:35;101445.84;;;14.40;100.00
57827;BME280;43656;57.746;11.780;2022-10-26T14:39:07;101453.38;;;14.38;100.00
57827;BME280;43656;57.746;11.780;2022-10-26T14:41:34;101446.50;;;14.36;100.00
57827;BME280;43656;57.746;11.780;2022-10-26T14:44:00;101446.50;;;14.29;100.00
57827;BME280;43656;57.746;11.780;2022-10-26T14:46:43;101447.97;;;14.25;100.00
57827;BME280;43656;57.746;11.780;2022-10-26T14:49:18;101446.72;;;14.21;100.00
57827;BME280;43656;57.746;11.780;2022-10-26T14:51:45;101445.84;;;14.14;100.00
57827;BME280;43656;57.746;11.780;2022-10-26T14:54:21;101439.84;;;14.12;100.00
57827;BME280;43656;57.746;11.780;2022-10-26T14:56:47;101446.69;;;14.07;100.00
57827;BME280;43656;57.746;11.780;2022-10-26T14:59:27;101441.69;;;14.04;100.00
57827;BME280;43656;57.746;11.780;2022-10-26T15:04:55;101443.34;;;14.05;100.00
57827;BME280;43656;57.746;11.780;2022-10-26T15:07:21;101440.88;;;14.04;100.00
57827;BME280;43656;57.746;11.780;2022-10-26T15:09:51;101433.16;;;13.94;100.00
57827;BME280;43656;57.746;11.780;2022-10-26T15:14:55;101431.28;;;13.95;100.00